sensor_id;sensor_type;location;lat;lon;timestamp;P1;durP1;ratioP1;P2;durP2;ratioP2
8982;SDS011;20979;59.850;10.660;2023-07-31T08:04:09;2.85;;;1.42;;
8982;SDS011;20979;59.850;10.660;2023-07-31T08:06:37;4.38;;;1.52;;
8982;SDS011;20979;59.850;10.660;2023-07-31T08:15:12;4.75;;;1.70;;
8982;SDS011;20979;59.850;10.660;2023-07-31T08:17:39;3.72;;;1.55;;
8982;SDS011;20979;59.850;10.660;2023-07-31T08:20:11;3.97;;;1.70;;
8982;SDS011;20979;59.850;10.660;2023-07-31T08:22:39;3.00;;;1.70;;
8982;SDS011;20979;59.850;10.660;2023-07-31T08:25:07;2.95;;;1.73;;
8982;SDS011;20979;59.850;10.660;2023-07-31T08:36:43;2.78;;;1.20;;
8982;SDS011;20979;59.850;10.660;2023-07-31T08:45:18;3.92;;;1.50;;
8982;SDS011;20979;59.850;10.660;2023-07-31T08:53:54;3.70;;;1.52;;
8982;SDS011;20979;59.850;10.660;2023-07-31T08:59:36;4.57;;;2.13;;
8982;SDS011;20979;59.850;10.660;2023-07-31T09:02:05;5.28;;;1.88;;
8982;SDS011;20979;59.850;10.660;2023-07-31T09:04:33;3.97;;;1.70;;
8982;SDS011;20979;59.850;10.660;2023-07-31T09:07:08;3.22;;;1.70;;
8982;SDS011;20979;59.850;10.660;2023-07-31T09:09:42;5.13;;;1.63;;
8982;SDS011;20979;59.850;10.660;2023-07-31T09:12:10;4.18;;;1.65;;
8982;SDS011;20979;59.850;10.660;2023-07-31T09:14:38;3.42;;;1.58;;
8982;SDS011;20979;59.850;10.660;2023-07-31T09:17:06;4.07;;;1.48;;
8982;SDS011;20979;59.850;10.660;2023-07-31T09:19:34;2.10;;;1.13;;
8982;SDS011;20979;59.850;10.660;2023-07-31T09:22:02;3.15;;;1.55;;
8982;SDS011;20979;59.850;10.660;2023-07-31T09:24:30;2.17;;;1.27;;
8982;SDS011;20979;59.850;10.660;2023-07-31T09:27:00;3.08;;;1.40;;
8982;SDS011;20979;59.850;10.660;2023-07-31T09:29:27;1.50;;;1.02;;
8982;SDS011;20979;59.850;10.660;2023-07-31T09:31:55;1.52;;;1.10;;
8982;SDS011;20979;59.850;10.660;2023-07-31T09:34:28;2.13;;;1.20;;
8982;SDS011;20979;59.850;10.660;2023-07-31T09:36:57;3.17;;;1.23;;
8982;SDS011;20979;59.850;10.660;2023-07-31T09:39:24;3.00;;;1.33;;
8982;SDS011;20979;59.850;10.660;2023-07-31T09:41:54;2.22;;;1.27;;
8982;SDS011;20979;59.850;10.660;2023-07-31T09:44:23;2.05;;;1.02;;
8982;SDS011;20979;59.850;10.660;2023-07-31T11:01:01;2.30;;;1.33;;
8982;SDS011;20979;59.850;10.660;2023-07-31T11:03:42;2.20;;;1.30;;
8982;SDS011;20979;59.850;10.660;2023-07-31T11:06:10;2.05;;;1.23;;
8982;SDS011;20979;59.850;10.660;2023-07-31T11:08:41;2.70;;;1.17;;
8982;SDS011;20979;59.850;10.660;2023-07-31T11:11:09;1.67;;;1.10;;
8982;SDS011;20979;59.850;10.660;2023-07-31T11:13:40;3.10;;;1.40;;
8982;SDS011;20979;59.850;10.660;2023-07-31T11:16:16;4.72;;;1.58;;
8982;SDS011;20979;59.850;10.660;2023-07-31T11:18:47;2.08;;;1.13;;
8982;SDS011;20979;59.850;10.660;2023-07-31T11:21:17;2.95;;;1.40;;
8982;SDS011;20979;59.850;10.660;2023-07-31T11:23:45;1.77;;;0.98;;
8982;SDS011;20979;59.850;10.660;2023-07-31T11:26:13;1.83;;;1.20;;
8982;SDS011;20979;59.850;10.660;2023-07-31T11:28:40;1.45;;;1.10;;
8982;SDS011;20979;59.850;10.660;2023-07-31T11:31:09;1.92;;;1.23;;
8982;SDS011;20979;59.850;10.660;2023-07-31T11:33:49;4.72;;;1.33;;
8982;SDS011;20979;59.850;10.660;2023-07-31T11:36:17;4.35;;;1.20;;
8982;SDS011;20979;59.850;10.660;2023-07-31T11:38:45;3.20;;;1.20;;
8982;SDS011;20979;59.850;10.660;2023-07-31T11:41:14;1.73;;;1.23;;
8982;SDS011;20979;59.850;10.660;2023-07-31T11:43:43;0.80;;;0.70;;
8982;SDS011;20979;59.850;10.660;2023-07-31T11:46:24;2.10;;;1.20;;
8982;SDS011;20979;59.850;10.660;2023-07-31T11:48:55;2.23;;;1.20;;
8982;SDS011;20979;59.850;10.660;2023-07-31T11:51:26;1.40;;;0.80;;
8982;SDS011;20979;59.850;10.660;2023-07-31T11:53:55;1.13;;;0.63;;
8982;SDS011;20979;59.850;10.660;2023-07-31T11:56:23;1.00;;;0.90;;
8982;SDS011;20979;59.850;10.660;2023-07-31T11:58:53;1.53;;;1.00;;
8982;SDS011;20979;59.850;10.660;2023-07-31T12:01:38;1.88;;;0.80;;
8982;SDS011;20979;59.850;10.660;2023-07-31T12:04:07;1.15;;;0.80;;
8982;SDS011;20979;59.850;10.660;2023-07-31T12:06:35;2.38;;;0.80;;
8982;SDS011;20979;59.850;10.660;2023-07-31T12:09:03;0.50;;;0.50;;
8982;SDS011;20979;59.850;10.660;2023-07-31T12:11:31;1.00;;;0.50;;
8982;SDS011;20979;59.850;10.660;2023-07-31T12:14:03;1.35;;;0.75;;
8982;SDS011;20979;59.850;10.660;2023-07-31T12:16:31;0.93;;;0.70;;
8982;SDS011;20979;59.850;10.660;2023-07-31T12:18:59;0.85;;;0.70;;
8982;SDS011;20979;59.850;10.660;2023-07-31T12:21:28;0.75;;;0.50;;
8982;SDS011;20979;59.850;10.660;2023-07-31T12:23:55;0.70;;;0.70;;
8982;SDS011;20979;59.850;10.660;2023-07-31T12:26:23;1.33;;;0.88;;
8982;SDS011;20979;59.850;10.660;2023-07-31T12:28:50;1.02;;;0.70;;
8982;SDS011;20979;59.850;10.660;2023-07-31T12:31:21;1.33;;;0.70;;
8982;SDS011;20979;59.850;10.660;2023-07-31T12:34:14;0.55;;;0.55;;
8982;SDS011;20979;59.850;10.660;2023-07-31T12:36:43;1.55;;;0.63;;
8982;SDS011;20979;59.850;10.660;2023-07-31T12:39:23;1.05;;;0.55;;
8982;SDS011;20979;59.850;10.660;2023-07-31T12:41:50;1.55;;;0.85;;
8982;SDS011;20979;59.850;10.660;2023-07-31T12:46:56;2.00;;;0.70;;
8982;SDS011;20979;59.850;10.660;2023-07-31T12:49:23;1.33;;;1.02;;
8982;SDS011;20979;59.850;10.660;2023-07-31T12:52:06;1.08;;;0.82;;
8982;SDS011;20979;59.850;10.660;2023-07-31T12:54:34;1.75;;;0.70;;
8982;SDS011;20979;59.850;10.660;2023-07-31T12:57:01;1.13;;;0.88;;
8982;SDS011;20979;59.850;10.660;2023-07-31T12:59:29;1.95;;;1.10;;
8982;SDS011;20979;59.850;10.660;2023-07-31T13:01:57;1.52;;;1.10;;
8982;SDS011;20979;59.850;10.660;2023-07-31T13:04:38;1.27;;;0.90;;
8982;SDS011;20979;59.850;10.660;2023-07-31T13:10:11;1.23;;;1.00;;
8982;SDS011;20979;59.850;10.660;2023-07-31T13:12:39;2.13;;;1.10;;
8982;SDS011;20979;59.850;10.660;2023-07-31T13:15:10;2.67;;;0.90;;
8982;SDS011;20979;59.850;10.660;2023-07-31T13:17:51;1.55;;;1.05;;
8982;SDS011;20979;59.850;10.660;2023-07-31T13:20:22;1.88;;;1.00;;
8982;SDS011;20979;59.850;10.660;2023-07-31T13:22:58;1.90;;;1.10;;
8982;SDS011;20979;59.850;10.660;2023-07-31T13:25:36;2.03;;;0.95;;
8982;SDS011;20979;59.850;10.660;2023-07-31T13:28:10;1.08;;;0.85;;
8982;SDS011;20979;59.850;10.660;2023-07-31T13:30:38;0.77;;;0.50;;
8982;SDS011;20979;59.850;10.660;2023-07-31T13:33:05;1.98;;;0.80;;
8982;SDS011;20979;59.850;10.660;2023-07-31T13:44:39;1.10;;;0.95;;
8982;SDS011;20979;59.850;10.660;2023-07-31T13:47:13;1.42;;;0.88;;
8982;SDS011;20979;59.850;10.660;2023-07-31T13:49:54;1.73;;;1.00;;
8982;SDS011;20979;59.850;10.660;2023-07-31T13:52:58;1.95;;;1.00;;
8982;SDS011;20979;59.850;10.660;2023-07-31T13:55:25;1.40;;;0.90;;
8982;SDS011;20979;59.850;10.660;2023-07-31T13:58:13;1.15;;;0.90;;
8982;SDS011;20979;59.850;10.660;2023-07-31T14:00:44;1.65;;;0.95;;
8982;SDS011;20979;59.850;10.660;2023-07-31T14:03:12;0.93;;;0.80;;
8982;SDS011;20979;59.850;10.660;2023-07-31T14:05:54;1.25;;;0.93;;
8982;SDS011;20979;59.850;10.660;2023-07-31T14:08:37;2.05;;;1.05;;
8982;SDS011;20979;59.850;10.660;2023-07-31T14:11:04;1.48;;;0.90;;
8982;SDS011;20979;59.850;10.660;2023-07-31T14:13:32;1.20;;;0.90;;
8982;SDS011;20979;59.850;10.660;2023-07-31T14:19:00;1.75;;;0.98;;
8982;SDS011;20979;59.850;10.660;2023-07-31T14:21:28;1.98;;;1.00;;
8982;SDS011;20979;59.850;10.660;2023-07-31T14:23:56;1.63;;;0.80;;
8982;SDS011;20979;59.850;10.660;2023-07-31T14:26:23;2.08;;;1.30;;
8982;SDS011;20979;59.850;10.660;2023-07-31T14:28:51;0.90;;;0.90;;
8982;SDS011;20979;59.850;10.660;2023-07-31T14:31:24;0.63;;;0.63;;
8982;SDS011;20979;59.850;10.660;2023-07-31T14:33:57;1.30;;;0.93;;
8982;SDS011;20979;59.850;10.660;2023-07-31T14:36:37;1.50;;;1.05;;
8982;SDS011;20979;59.850;10.660;2023-07-31T14:39:07;2.22;;;1.00;;
8982;SDS011;20979;59.850;10.660;2023-07-31T14:44:44;1.10;;;0.73;;
8982;SDS011;20979;59.850;10.660;2023-07-31T14:47:14;1.05;;;0.70;;
8982;SDS011;20979;59.850;10.660;2023-07-31T14:49:42;1.55;;;0.80;;
8982;SDS011;20979;59.850;10.660;2023-07-31T14:52:11;1.02;;;0.80;;
8982;SDS011;20979;59.850;10.660;2023-07-31T14:54:39;3.28;;;1.10;;
8982;SDS011;20979;59.850;10.660;2023-07-31T14:57:16;1.52;;;1.00;;
8982;SDS011;20979;59.850;10.660;2023-07-31T15:01:20;1.20;;;0.90;;
8982;SDS011;20979;59.850;10.660;2023-07-31T15:03:08;3.25;;;1.00;;
8982;SDS011;20979;59.850;10.660;2023-07-31T15:05:35;1.00;;;0.82;;
8982;SDS011;20979;59.850;10.660;2023-07-31T15:08:04;2.08;;;0.90;;
8982;SDS011;20979;59.850;10.660;2023-07-31T15:10:32;1.40;;;0.75;;
8982;SDS011;20979;59.850;10.660;2023-07-31T15:12:59;1.80;;;1.00;;
8982;SDS011;20979;59.850;10.660;2023-07-31T15:18:05;1.08;;;0.77;;
8982;SDS011;20979;59.850;10.660;2023-07-31T15:20:32;1.13;;;0.90;;
8982;SDS011;20979;59.850;10.660;2023-07-31T15:23:00;1.42;;;1.00;;
8982;SDS011;20979;59.850;10.660;2023-07-31T15:25:44;1.63;;;1.00;;
8982;SDS011;20979;59.850;10.660;2023-07-31T15:28:11;1.17;;;0.73;;
8982;SDS011;20979;59.850;10.660;2023-07-31T15:30:39;1.25;;;0.90;;
8982;SDS011;20979;59.850;10.660;2023-07-31T15:33:07;1.55;;;1.15;;
8982;SDS011;20979;59.850;10.660;2023-07-31T15:35:35;1.75;;;1.13;;
8982;SDS011;20979;59.850;10.660;2023-07-31T15:38:02;1.95;;;1.42;;
8982;SDS011;20979;59.850;10.660;2023-07-31T15:40:30;3.20;;;1.58;;
8982;SDS011;20979;59.850;10.660;2023-07-31T15:42:59;2.10;;;1.15;;
8982;SDS011;20979;59.850;10.660;2023-07-31T15:45:27;3.70;;;1.25;;
8982;SDS011;20979;59.850;10.660;2023-07-31T15:48:04;1.70;;;1.00;;
8982;SDS011;20979;59.850;10.660;2023-07-31T15:50:38;3.78;;;1.30;;
8982;SDS011;20979;59.850;10.660;2023-07-31T15:53:07;2.58;;;1.40;;
8982;SDS011;20979;59.850;10.660;2023-07-31T15:55:34;2.35;;;1.45;;
8982;SDS011;20979;59.850;10.660;2023-07-31T15:58:06;2.72;;;1.02;;
8982;SDS011;20979;59.850;10.660;2023-07-31T16:00:33;1.65;;;1.17;;
8982;SDS011;20979;59.850;10.660;2023-07-31T16:03:00;4.15;;;1.20;;
8982;SDS011;20979;59.850;10.660;2023-07-31T16:05:28;3.45;;;1.20;;
8982;SDS011;20979;59.850;10.660;2023-07-31T16:07:55;3.17;;;1.45;;
8982;SDS011;20979;59.850;10.660;2023-07-31T16:10:23;2.65;;;1.25;;
8982;SDS011;20979;59.850;10.660;2023-07-31T16:12:50;2.67;;;1.35;;
8982;SDS011;20979;59.850;10.660;2023-07-31T16:15:19;2.30;;;1.40;;
8982;SDS011;20979;59.850;10.660;2023-07-31T16:20:24;2.75;;;1.20;;
8982;SDS011;20979;59.850;10.660;2023-07-31T16:22:52;3.13;;;1.38;;
8982;SDS011;20979;59.850;10.660;2023-07-31T16:25:21;2.83;;;1.38;;
8982;SDS011;20979;59.850;10.660;2023-07-31T16:27:48;2.53;;;1.30;;
8982;SDS011;20979;59.850;10.660;2023-07-31T16:30:28;2.67;;;1.30;;
8982;SDS011;20979;59.850;10.660;2023-07-31T16:32:55;2.80;;;1.30;;
8982;SDS011;20979;59.850;10.660;2023-07-31T16:35:23;2.10;;;1.25;;
8982;SDS011;20979;59.850;10.660;2023-07-31T16:37:50;1.95;;;1.00;;
8982;SDS011;20979;59.850;10.660;2023-07-31T16:40:17;2.05;;;1.25;;
8982;SDS011;20979;59.850;10.660;2023-07-31T16:42:46;1.48;;;1.33;;
8982;SDS011;20979;59.850;10.660;2023-07-31T16:45:14;2.70;;;0.95;;
8982;SDS011;20979;59.850;10.660;2023-07-31T16:47:45;1.55;;;0.80;;
8982;SDS011;20979;59.850;10.660;2023-07-31T16:50:13;2.47;;;0.90;;
8982;SDS011;20979;59.850;10.660;2023-07-31T16:52:42;1.02;;;0.93;;
8982;SDS011;20979;59.850;10.660;2023-07-31T16:55:09;2.00;;;0.90;;
8982;SDS011;20979;59.850;10.660;2023-07-31T16:57:37;3.00;;;1.05;;
8982;SDS011;20979;59.850;10.660;2023-07-31T17:00:05;2.25;;;0.98;;
8982;SDS011;20979;59.850;10.660;2023-07-31T17:02:32;1.67;;;1.10;;
8982;SDS011;20979;59.850;10.660;2023-07-31T17:05:01;1.08;;;0.93;;
8982;SDS011;20979;59.850;10.660;2023-07-31T17:07:39;1.45;;;0.93;;
8982;SDS011;20979;59.850;10.660;2023-07-31T17:10:07;2.35;;;0.85;;
8982;SDS011;20979;59.850;10.660;2023-07-31T17:12:34;0.88;;;0.88;;
8982;SDS011;20979;59.850;10.660;2023-07-31T17:15:02;1.20;;;0.90;;
8982;SDS011;20979;59.850;10.660;2023-07-31T17:17:29;1.52;;;1.00;;
8982;SDS011;20979;59.850;10.660;2023-07-31T17:19:56;2.42;;;1.13;;
8982;SDS011;20979;59.850;10.660;2023-07-31T17:22:25;2.20;;;1.08;;
8982;SDS011;20979;59.850;10.660;2023-07-31T17:24:53;1.90;;;1.02;;
8982;SDS011;20979;59.850;10.660;2023-07-31T17:27:20;1.02;;;0.93;;
8982;SDS011;20979;59.850;10.660;2023-07-31T17:29:52;0.90;;;0.75;;
8982;SDS011;20979;59.850;10.660;2023-07-31T17:32:19;0.93;;;0.80;;
8982;SDS011;20979;59.850;10.660;2023-07-31T17:34:50;2.38;;;1.08;;
8982;SDS011;20979;59.850;10.660;2023-07-31T17:37:17;2.00;;;1.13;;
8982;SDS011;20979;59.850;10.660;2023-07-31T17:39:46;1.77;;;0.98;;
8982;SDS011;20979;59.850;10.660;2023-07-31T17:42:13;0.75;;;0.75;;
8982;SDS011;20979;59.850;10.660;2023-07-31T17:44:41;2.58;;;1.20;;
8982;SDS011;20979;59.850;10.660;2023-07-31T17:47:08;1.50;;;1.00;;
8982;SDS011;20979;59.850;10.660;2023-07-31T17:49:36;3.20;;;1.40;;
8982;SDS011;20979;59.850;10.660;2023-07-31T17:52:03;1.70;;;0.90;;
8982;SDS011;20979;59.850;10.660;2023-07-31T17:54:33;2.35;;;0.90;;
8982;SDS011;20979;59.850;10.660;2023-07-31T17:57:02;1.35;;;1.20;;
8982;SDS011;20979;59.850;10.660;2023-07-31T17:59:31;1.10;;;1.00;;
8982;SDS011;20979;59.850;10.660;2023-07-31T18:01:59;2.33;;;1.08;;
8982;SDS011;20979;59.850;10.660;2023-07-31T18:04:27;1.67;;;0.85;;
8982;SDS011;20979;59.850;10.660;2023-07-31T18:09:37;1.67;;;1.10;;
8982;SDS011;20979;59.850;10.660;2023-07-31T18:12:08;2.97;;;1.17;;
8982;SDS011;20979;59.850;10.660;2023-07-31T18:14:35;1.38;;;1.27;;
8982;SDS011;20979;59.850;10.660;2023-07-31T18:17:05;2.95;;;1.25;;
8982;SDS011;20979;59.850;10.660;2023-07-31T18:19:32;1.45;;;1.27;;
8982;SDS011;20979;59.850;10.660;2023-07-31T18:22:00;2.05;;;1.00;;
8982;SDS011;20979;59.850;10.660;2023-07-31T18:24:33;2.20;;;1.08;;
8982;SDS011;20979;59.850;10.660;2023-07-31T18:27:01;1.70;;;1.40;;
8982;SDS011;20979;59.850;10.660;2023-07-31T18:29:30;1.45;;;1.00;;
8982;SDS011;20979;59.850;10.660;2023-07-31T18:32:00;2.58;;;1.20;;
8982;SDS011;20979;59.850;10.660;2023-07-31T18:34:29;2.38;;;1.10;;
8982;SDS011;20979;59.850;10.660;2023-07-31T18:36:58;1.25;;;1.15;;
8982;SDS011;20979;59.850;10.660;2023-07-31T18:39:25;2.60;;;1.30;;
8982;SDS011;20979;59.850;10.660;2023-07-31T18:41:52;1.85;;;1.20;;
8982;SDS011;20979;59.850;10.660;2023-07-31T18:44:21;1.98;;;1.02;;
8982;SDS011;20979;59.850;10.660;2023-07-31T18:46:51;2.25;;;1.30;;
8982;SDS011;20979;59.850;10.660;2023-07-31T18:49:19;1.48;;;1.13;;
8982;SDS011;20979;59.850;10.660;2023-07-31T18:51:46;1.40;;;1.30;;
8982;SDS011;20979;59.850;10.660;2023-07-31T18:54:14;2.05;;;1.20;;
8982;SDS011;20979;59.850;10.660;2023-07-31T18:56:41;2.97;;;1.02;;
8982;SDS011;20979;59.850;10.660;2023-07-31T18:59:08;2.88;;;1.42;;
8982;SDS011;20979;59.850;10.660;2023-07-31T19:01:36;2.47;;;1.10;;
8982;SDS011;20979;59.850;10.660;2023-07-31T19:04:07;1.20;;;1.10;;
8982;SDS011;20979;59.850;10.660;2023-07-31T19:06:35;1.67;;;1.20;;
8982;SDS011;20979;59.850;10.660;2023-07-31T19:09:04;1.08;;;0.98;;
8982;SDS011;20979;59.850;10.660;2023-07-31T19:11:32;1.20;;;1.10;;
8982;SDS011;20979;59.850;10.660;2023-07-31T19:14:06;1.67;;;1.55;;
8982;SDS011;20979;59.850;10.660;2023-07-31T19:16:37;2.30;;;1.50;;
8982;SDS011;20979;59.850;10.660;2023-07-31T19:19:04;1.88;;;1.33;;
8982;SDS011;20979;59.850;10.660;2023-07-31T19:21:33;2.13;;;1.58;;
8982;SDS011;20979;59.850;10.660;2023-07-31T19:24:01;1.63;;;1.27;;
8982;SDS011;20979;59.850;10.660;2023-07-31T19:26:42;3.55;;;1.55;;
8982;SDS011;20979;59.850;10.660;2023-07-31T19:29:09;2.73;;;1.30;;
8982;SDS011;20979;59.850;10.660;2023-07-31T19:31:39;2.15;;;1.55;;
8982;SDS011;20979;59.850;10.660;2023-07-31T19:34:09;3.20;;;1.70;;
8982;SDS011;20979;59.850;10.660;2023-07-31T19:36:39;1.90;;;1.40;;
8982;SDS011;20979;59.850;10.660;2023-07-31T19:39:07;2.40;;;1.30;;
8982;SDS011;20979;59.850;10.660;2023-07-31T19:41:36;2.92;;;1.48;;
8982;SDS011;20979;59.850;10.660;2023-07-31T19:44:05;1.55;;;1.38;;
8982;SDS011;20979;59.850;10.660;2023-07-31T19:46:33;2.63;;;1.60;;
8982;SDS011;20979;59.850;10.660;2023-07-31T19:49:01;2.13;;;1.40;;
8982;SDS011;20979;59.850;10.660;2023-07-31T19:51:30;4.30;;;1.73;;
8982;SDS011;20979;59.850;10.660;2023-07-31T19:54:00;1.60;;;1.45;;
8982;SDS011;20979;59.850;10.660;2023-07-31T19:56:27;2.60;;;1.50;;
8982;SDS011;20979;59.850;10.660;2023-07-31T19:59:00;2.58;;;1.30;;
8982;SDS011;20979;59.850;10.660;2023-07-31T20:01:28;2.92;;;1.30;;
8982;SDS011;20979;59.850;10.660;2023-07-31T20:03:56;1.70;;;1.50;;
8982;SDS011;20979;59.850;10.660;2023-07-31T20:06:32;2.00;;;1.43;;
8982;SDS011;20979;59.850;10.660;2023-07-31T20:09:01;3.25;;;1.27;;
8982;SDS011;20979;59.850;10.660;2023-07-31T20:11:29;2.50;;;1.20;;
8982;SDS011;20979;59.850;10.660;2023-07-31T20:13:57;2.40;;;1.27;;
8982;SDS011;20979;59.850;10.660;2023-07-31T20:16:24;2.73;;;1.33;;
8982;SDS011;20979;59.850;10.660;2023-07-31T20:18:52;1.33;;;1.23;;
8982;SDS011;20979;59.850;10.660;2023-07-31T20:21:20;3.57;;;1.50;;
8982;SDS011;20979;59.850;10.660;2023-07-31T20:23:47;2.23;;;1.43;;
8982;SDS011;20979;59.850;10.660;2023-07-31T20:26:18;1.37;;;1.27;;
8982;SDS011;20979;59.850;10.660;2023-07-31T20:28:45;1.33;;;1.20;;
8982;SDS011;20979;59.850;10.660;2023-07-31T20:31:13;1.83;;;1.00;;
8982;SDS011;20979;59.850;10.660;2023-07-31T20:33:42;1.13;;;1.13;;
8982;SDS011;20979;59.850;10.660;2023-07-31T20:38:55;2.10;;;1.40;;
8982;SDS011;20979;59.850;10.660;2023-07-31T20:41:24;5.33;;;1.40;;
8982;SDS011;20979;59.850;10.660;2023-07-31T20:43:52;2.77;;;1.30;;
8982;SDS011;20979;59.850;10.660;2023-07-31T20:49:20;1.30;;;1.20;;
8982;SDS011;20979;59.850;10.660;2023-07-31T20:51:48;2.33;;;1.40;;
8982;SDS011;20979;59.850;10.660;2023-07-31T20:54:15;2.63;;;1.43;;
8982;SDS011;20979;59.850;10.660;2023-07-31T20:56:44;2.47;;;1.23;;
8982;SDS011;20979;59.850;10.660;2023-07-31T20:59:12;3.63;;;1.60;;
8982;SDS011;20979;59.850;10.660;2023-07-31T21:04:47;2.60;;;1.33;;
8982;SDS011;20979;59.850;10.660;2023-07-31T21:07:20;1.30;;;1.20;;
8982;SDS011;20979;59.850;10.660;2023-07-31T21:09:51;2.47;;;1.40;;
8982;SDS011;20979;59.850;10.660;2023-07-31T21:12:53;3.07;;;1.47;;
8982;SDS011;20979;59.850;10.660;2023-07-31T21:15:24;2.60;;;1.33;;
8982;SDS011;20979;59.850;10.660;2023-07-31T21:17:52;3.13;;;1.30;;
8982;SDS011;20979;59.850;10.660;2023-07-31T21:20:19;4.13;;;1.50;;
8982;SDS011;20979;59.850;10.660;2023-07-31T21:22:47;4.93;;;1.70;;
8982;SDS011;20979;59.850;10.660;2023-07-31T21:25:15;2.30;;;1.33;;
8982;SDS011;20979;59.850;10.660;2023-07-31T21:27:45;3.37;;;1.40;;
8982;SDS011;20979;59.850;10.660;2023-07-31T21:30:14;1.87;;;1.40;;
8982;SDS011;20979;59.850;10.660;2023-07-31T21:32:42;2.90;;;1.50;;
8982;SDS011;20979;59.850;10.660;2023-07-31T21:35:09;5.87;;;1.37;;
8982;SDS011;20979;59.850;10.660;2023-07-31T21:37:38;2.30;;;1.20;;
8982;SDS011;20979;59.850;10.660;2023-07-31T21:40:05;1.50;;;1.40;;
8982;SDS011;20979;59.850;10.660;2023-07-31T21:42:33;1.50;;;1.20;;
8982;SDS011;20979;59.850;10.660;2023-07-31T21:45:01;2.60;;;1.50;;
8982;SDS011;20979;59.850;10.660;2023-07-31T21:47:31;2.87;;;1.40;;
8982;SDS011;20979;59.850;10.660;2023-07-31T21:49:58;1.40;;;1.20;;
8982;SDS011;20979;59.850;10.660;2023-07-31T21:52:28;2.17;;;1.60;;
8982;SDS011;20979;59.850;10.660;2023-07-31T22:00:54;3.00;;;1.47;;
8982;SDS011;20979;59.850;10.660;2023-07-31T22:06:26;2.63;;;1.80;;
8982;SDS011;20979;59.850;10.660;2023-07-31T22:09:09;1.67;;;1.50;;
8982;SDS011;20979;59.850;10.660;2023-07-31T22:11:36;1.67;;;1.40;;
8982;SDS011;20979;59.850;10.660;2023-07-31T22:14:04;3.67;;;1.70;;
8982;SDS011;20979;59.850;10.660;2023-07-31T22:16:51;2.80;;;1.40;;
8982;SDS011;20979;59.850;10.660;2023-07-31T22:19:20;1.77;;;1.40;;
8982;SDS011;20979;59.850;10.660;2023-07-31T22:27:56;2.43;;;1.50;;
8982;SDS011;20979;59.850;10.660;2023-07-31T22:30:24;3.20;;;1.73;;
8982;SDS011;20979;59.850;10.660;2023-07-31T22:36:03;3.03;;;1.53;;
8982;SDS011;20979;59.850;10.660;2023-07-31T22:38:33;2.77;;;1.60;;
8982;SDS011;20979;59.850;10.660;2023-07-31T22:41:21;1.43;;;1.33;;
8982;SDS011;20979;59.850;10.660;2023-07-31T22:52:48;2.57;;;1.40;;
8982;SDS011;20979;59.850;10.660;2023-07-31T22:55:19;2.43;;;1.60;;
8982;SDS011;20979;59.850;10.660;2023-07-31T22:58:07;2.23;;;1.40;;
8982;SDS011;20979;59.850;10.660;2023-07-31T23:00:35;2.10;;;1.27;;
8982;SDS011;20979;59.850;10.660;2023-07-31T23:03:12;3.93;;;1.50;;
8982;SDS011;20979;59.850;10.660;2023-07-31T23:05:40;5.27;;;1.50;;
8982;SDS011;20979;59.850;10.660;2023-07-31T23:08:08;1.97;;;1.40;;
8982;SDS011;20979;59.850;10.660;2023-07-31T23:10:36;1.73;;;1.40;;
8982;SDS011;20979;59.850;10.660;2023-07-31T23:13:04;3.20;;;1.60;;
8982;SDS011;20979;59.850;10.660;2023-07-31T23:15:32;2.07;;;1.37;;
8982;SDS011;20979;59.850;10.660;2023-07-31T23:17:59;1.97;;;1.50;;
8982;SDS011;20979;59.850;10.660;2023-07-31T23:20:27;2.10;;;1.03;;
8982;SDS011;20979;59.850;10.660;2023-07-31T23:22:55;3.33;;;1.37;;
8982;SDS011;20979;59.850;10.660;2023-07-31T23:25:24;2.07;;;1.47;;
8982;SDS011;20979;59.850;10.660;2023-07-31T23:27:51;1.50;;;1.30;;
8982;SDS011;20979;59.850;10.660;2023-07-31T23:30:18;2.40;;;1.50;;
8982;SDS011;20979;59.850;10.660;2023-07-31T23:32:46;2.07;;;1.40;;
8982;SDS011;20979;59.850;10.660;2023-07-31T23:35:14;1.50;;;1.40;;
8982;SDS011;20979;59.850;10.660;2023-07-31T23:37:41;2.83;;;1.60;;
8982;SDS011;20979;59.850;10.660;2023-07-31T23:40:10;2.60;;;1.40;;
8982;SDS011;20979;59.850;10.660;2023-07-31T23:42:40;2.10;;;1.40;;
8982;SDS011;20979;59.850;10.660;2023-07-31T23:45:08;3.03;;;1.40;;
8982;SDS011;20979;59.850;10.660;2023-07-31T23:47:36;2.00;;;1.40;;
8982;SDS011;20979;59.850;10.660;2023-07-31T23:50:04;1.50;;;1.40;;
8982;SDS011;20979;59.850;10.660;2023-07-31T23:52:31;1.57;;;1.23;;
8982;SDS011;20979;59.850;10.660;2023-07-31T23:55:13;1.57;;;1.37;;
8982;SDS011;20979;59.850;10.660;2023-07-31T23:57:42;2.70;;;1.50;;
